createdAt,value
2023-05-21T00:01:25.811Z,15.70
2023-05-21T00:03:52.712Z,14.55
2023-05-21T00:06:20.907Z,15.02
2023-05-21T00:08:47.743Z,15.07
2023-05-21T00:11:14.401Z,14.32
2023-05-21T00:13:41.028Z,14.75
2023-05-21T00:16:07.863Z,14.30
2023-05-21T00:18:34.457Z,14.15
2023-05-21T00:21:01.937Z,13.82
2023-05-21T00:23:29.025Z,13.30
2023-05-21T00:25:56.531Z,13.27
2023-05-21T00:28:23.085Z,13.15
2023-05-21T00:30:49.795Z,12.23
2023-05-21T00:33:16.276Z,12.93
2023-05-21T00:35:42.912Z,12.85
2023-05-21T00:38:09.641Z,12.85
2023-05-21T00:40:36.430Z,11.70
2023-05-21T00:43:03.433Z,13.15
2023-05-21T00:45:30.047Z,13.02
2023-05-21T00:47:56.830Z,14.23
2023-05-21T00:50:23.651Z,12.80
2023-05-21T00:52:50.380Z,13.77
2023-05-21T00:55:17.086Z,12.70
2023-05-21T00:57:43.745Z,12.73
2023-05-21T01:00:11.003Z,14.63
2023-05-21T01:02:38.134Z,14.15
2023-05-21T01:05:08.216Z,13.80
2023-05-21T01:07:36.685Z,12.10
2023-05-21T01:10:06.217Z,13.60
2023-05-21T01:12:34.189Z,13.18
2023-05-21T01:15:02.771Z,14.30
2023-05-21T01:17:29.938Z,13.40
2023-05-21T01:19:58.158Z,13.52
2023-05-21T01:22:25.248Z,13.18
2023-05-21T01:24:55.385Z,15.20
2023-05-21T01:27:22.457Z,13.95
2023-05-21T01:29:49.369Z,12.45
2023-05-21T01:32:31.117Z,13.85
2023-05-21T01:35:05.426Z,12.18
2023-05-21T01:37:57.154Z,12.32
2023-05-21T01:40:31.598Z,12.65
2023-05-21T01:42:58.649Z,11.65
2023-05-21T01:45:25.831Z,11.27
2023-05-21T01:47:54.587Z,11.15
2023-05-21T01:50:23.590Z,12.10
2023-05-21T01:52:52.267Z,12.20
2023-05-21T01:55:24.455Z,11.27
2023-05-21T01:57:53.448Z,12.13
2023-05-21T02:00:21.387Z,11.80
2023-05-21T02:02:48.452Z,12.38
2023-05-21T02:05:15.309Z,12.50
2023-05-21T02:07:43.870Z,12.38
2023-05-21T02:10:10.988Z,12.27
2023-05-21T02:12:38.018Z,12.32
2023-05-21T02:15:06.022Z,11.40
2023-05-21T02:17:34.179Z,11.32
2023-05-21T02:20:13.728Z,11.25
2023-05-21T02:22:44.572Z,11.70
2023-05-21T02:25:12.678Z,10.77
2023-05-21T02:27:40.697Z,11.80
2023-05-21T02:30:08.534Z,12.15
2023-05-21T02:32:35.510Z,11.25
2023-05-21T02:35:03.863Z,11.52
2023-05-21T02:37:35.127Z,11.38
2023-05-21T02:40:04.167Z,11.52
2023-05-21T02:42:30.872Z,11.13
2023-05-21T02:44:57.437Z,11.95
2023-05-21T02:47:24.242Z,10.55
2023-05-21T02:49:51.679Z,11.63
2023-05-21T02:52:19.423Z,10.52
2023-05-21T02:54:46.667Z,10.75
2023-05-21T02:57:13.429Z,11.90
2023-05-21T02:59:40.061Z,11.77
2023-05-21T03:02:07.801Z,11.27
2023-05-21T03:04:39.334Z,11.55
2023-05-21T03:07:06.290Z,10.43
2023-05-21T03:09:32.863Z,11.75
2023-05-21T03:11:59.347Z,12.02
2023-05-21T03:14:25.852Z,11.95
2023-05-21T03:16:52.516Z,11.07
2023-05-21T03:19:19.161Z,11.38
2023-05-21T03:21:45.939Z,12.35
2023-05-21T03:24:13.732Z,12.95
2023-05-21T03:26:40.350Z,11.38
2023-05-21T03:29:06.947Z,12.93
2023-05-21T03:31:33.527Z,12.38
2023-05-21T03:34:00.264Z,11.80
2023-05-21T03:36:26.822Z,12.02
2023-05-21T03:38:53.386Z,12.05
2023-05-21T03:41:20.023Z,11.68
2023-05-21T03:43:46.715Z,12.50
2023-05-21T03:46:13.247Z,12.98
2023-05-21T03:48:39.868Z,12.82
2023-05-21T03:51:07.784Z,13.27
2023-05-21T03:53:34.899Z,14.10
2023-05-21T03:56:01.447Z,12.85
2023-05-21T03:58:29.137Z,12.05
2023-05-21T04:00:55.710Z,12.00
2023-05-21T04:03:22.694Z,11.52
2023-05-21T04:05:49.696Z,12.20
2023-05-21T04:08:16.323Z,12.02
2023-05-21T04:10:42.896Z,11.82
2023-05-21T04:13:09.396Z,12.73
2023-05-21T04:15:36.226Z,11.98
2023-05-21T04:18:03.098Z,12.65
2023-05-21T04:20:29.694Z,12.25
2023-05-21T04:22:56.765Z,12.07
2023-05-21T04:25:23.855Z,13.02
2023-05-21T04:27:50.483Z,12.45
2023-05-21T04:30:16.965Z,12.98
2023-05-21T04:32:46.891Z,12.32
2023-05-21T04:35:15.291Z,11.73
2023-05-21T04:37:46.077Z,11.18
2023-05-21T04:42:54.362Z,11.50
2023-05-21T04:45:21.266Z,12.63
2023-05-21T04:47:48.036Z,11.93
2023-05-21T04:50:14.737Z,13.13
2023-05-21T04:52:41.988Z,11.98
2023-05-21T04:55:08.972Z,13.32
2023-05-21T04:57:35.852Z,12.45
2023-05-21T05:02:42.110Z,14.75
2023-05-21T05:05:09.206Z,14.23
2023-05-21T05:07:35.937Z,13.32
2023-05-21T05:10:02.776Z,12.73
2023-05-21T05:12:29.278Z,12.48
2023-05-21T05:14:56.192Z,12.90
2023-05-21T05:17:23.196Z,13.35
2023-05-21T05:19:50.052Z,15.02
2023-05-21T05:22:16.593Z,13.98
2023-05-21T05:24:43.217Z,13.30
2023-05-21T05:27:09.812Z,12.98
2023-05-21T05:29:36.945Z,13.90
2023-05-21T05:32:03.582Z,12.13
2023-05-21T05:34:30.115Z,13.30
2023-05-21T05:36:57.288Z,13.73
2023-05-21T05:39:23.834Z,13.30
2023-05-21T05:41:50.549Z,13.20
2023-05-21T05:44:28.609Z,12.80
2023-05-21T05:46:58.983Z,12.82
2023-05-21T05:49:25.719Z,12.25
2023-05-21T05:51:52.242Z,13.55
2023-05-21T05:54:19.563Z,13.27
2023-05-21T05:56:46.128Z,13.00
2023-05-21T05:59:12.720Z,14.13
2023-05-21T06:01:40.009Z,13.05
2023-05-21T06:04:06.771Z,12.27
2023-05-21T06:06:34.776Z,12.02
2023-05-21T06:09:01.456Z,11.65
2023-05-21T06:11:28.012Z,13.00
2023-05-21T06:13:54.602Z,14.18
2023-05-21T06:16:21.301Z,13.23
2023-05-21T06:18:47.939Z,12.10
2023-05-21T06:21:14.562Z,14.02
2023-05-21T06:23:41.161Z,13.13
2023-05-21T06:26:07.766Z,13.95
2023-05-21T06:28:34.342Z,14.00
2023-05-21T06:31:00.926Z,13.40
2023-05-21T06:33:27.607Z,13.77
2023-05-21T06:35:54.317Z,13.50
2023-05-21T06:38:20.949Z,12.73
2023-05-21T06:40:47.903Z,12.65
2023-05-21T06:43:14.580Z,13.65
2023-05-21T06:45:41.512Z,15.35
2023-05-21T06:48:08.374Z,17.35
2023-05-21T06:50:35.034Z,14.30
2023-05-21T06:53:01.530Z,14.90
2023-05-21T06:55:28.132Z,14.18
2023-05-21T06:57:58.302Z,13.85
2023-05-21T07:00:25.432Z,13.02
2023-05-21T07:02:52.292Z,12.55
2023-05-21T07:05:18.985Z,13.48
2023-05-21T07:07:45.562Z,12.23
2023-05-21T07:10:12.791Z,12.20
2023-05-21T07:12:41.344Z,13.90
2023-05-21T07:15:09.204Z,13.73
2023-05-21T07:17:35.902Z,13.38
2023-05-21T07:20:02.664Z,12.32
2023-05-21T07:22:29.208Z,14.93
2023-05-21T07:24:55.931Z,13.60
2023-05-21T07:27:25.864Z,12.73
2023-05-21T07:29:53.001Z,15.02
2023-05-21T07:32:19.567Z,14.20
2023-05-21T07:34:47.053Z,19.70
2023-05-21T07:37:14.142Z,13.57
2023-05-21T07:39:40.948Z,13.73
2023-05-21T07:42:07.514Z,13.60
2023-05-21T07:44:34.233Z,13.00
2023-05-21T07:47:00.825Z,12.18
2023-05-21T07:49:27.429Z,13.45
2023-05-21T07:51:54.036Z,14.55
2023-05-21T07:54:20.785Z,14.20
2023-05-21T07:56:47.453Z,14.80
2023-05-21T07:59:17.322Z,15.75
2023-05-21T08:01:44.287Z,16.10
2023-05-21T08:04:11.321Z,14.82
2023-05-21T08:06:37.997Z,16.30
2023-05-21T08:09:06.392Z,15.98
2023-05-21T08:11:33.270Z,14.68
2023-05-21T08:14:00.205Z,14.82
2023-05-21T08:16:27.032Z,14.75
2023-05-21T08:18:53.701Z,14.20
2023-05-21T08:21:20.364Z,14.73
2023-05-21T08:23:46.943Z,15.35
2023-05-21T08:26:16.483Z,14.82
2023-05-21T08:28:43.378Z,13.85
2023-05-21T08:31:10.040Z,15.02
2023-05-21T08:33:39.425Z,15.55
2023-05-21T08:36:06.948Z,15.10
2023-05-21T08:38:34.679Z,16.00
2023-05-21T08:41:01.254Z,15.68
2023-05-21T08:43:28.766Z,15.55
2023-05-21T08:45:56.665Z,16.40
2023-05-21T08:48:24.291Z,16.73
2023-05-21T08:50:52.334Z,15.38
2023-05-21T08:53:27.392Z,15.38
2023-05-21T08:55:56.133Z,17.13
2023-05-21T08:58:23.080Z,15.93
2023-05-21T09:00:49.757Z,15.80
2023-05-21T09:03:16.727Z,15.18
2023-05-21T09:05:44.946Z,15.43
2023-05-21T09:08:16.838Z,21.58
2023-05-21T09:10:49.611Z,14.70
2023-05-21T09:13:17.526Z,16.25
2023-05-21T09:15:45.561Z,15.18
2023-05-21T09:18:12.707Z,20.63
2023-05-21T09:20:40.117Z,16.67
2023-05-21T09:23:12.581Z,16.98
2023-05-21T09:25:39.847Z,15.50
2023-05-21T09:28:12.350Z,15.63
2023-05-21T09:30:47.319Z,16.92
2023-05-21T09:33:27.466Z,17.85
2023-05-21T09:35:54.208Z,17.55
2023-05-21T09:38:23.981Z,16.60
2023-05-21T09:40:50.841Z,15.60
2023-05-21T09:43:17.793Z,17.55
2023-05-21T09:45:55.848Z,17.15
2023-05-21T09:48:38.248Z,15.40
2023-05-21T09:51:16.051Z,16.30
2023-05-21T09:54:03.344Z,16.65
2023-05-21T09:56:32.369Z,15.10
2023-05-21T09:59:06.892Z,15.93
2023-05-21T10:01:34.441Z,15.10
2023-05-21T10:04:07.940Z,16.52
2023-05-21T10:06:38.176Z,15.60
2023-05-21T10:09:07.725Z,16.45
2023-05-21T10:11:34.722Z,16.55
2023-05-21T10:14:07.958Z,22.48
2023-05-21T10:16:35.974Z,15.50
2023-05-21T10:19:04.492Z,15.45
2023-05-21T10:21:33.346Z,16.58
2023-05-21T10:24:01.450Z,16.27
2023-05-21T10:26:28.628Z,16.45
2023-05-21T10:28:56.522Z,16.00
2023-05-21T10:31:23.635Z,16.60
2023-05-21T10:33:51.034Z,16.95
2023-05-21T10:36:20.702Z,16.65
2023-05-21T10:38:47.752Z,16.53
2023-05-21T10:41:16.261Z,16.88
2023-05-21T10:44:04.724Z,14.93
2023-05-21T10:46:39.990Z,16.92
2023-05-21T10:49:18.658Z,16.27
2023-05-21T10:52:16.184Z,16.30
2023-05-21T10:54:52.957Z,16.10
2023-05-21T10:57:51.937Z,17.67
2023-05-21T11:00:21.330Z,16.98
2023-05-21T11:02:59.795Z,17.30
2023-05-21T11:05:51.120Z,17.95
2023-05-21T11:08:27.536Z,17.75
2023-05-21T11:10:55.305Z,19.17
2023-05-21T11:13:22.098Z,18.23
2023-05-21T11:15:58.139Z,18.10
2023-05-21T11:18:44.705Z,19.35
2023-05-21T11:21:14.341Z,16.90
2023-05-21T11:23:59.466Z,19.70
2023-05-21T11:26:27.696Z,18.55
2023-05-21T11:29:03.351Z,18.35
2023-05-21T11:31:38.595Z,17.63
2023-05-21T11:34:11.528Z,17.38
2023-05-21T11:36:39.548Z,18.45
2023-05-21T11:39:11.849Z,18.48
2023-05-21T11:41:51.714Z,18.85
2023-05-21T11:44:18.357Z,18.17
2023-05-21T11:46:45.003Z,18.60
2023-05-21T11:49:12.404Z,17.90
2023-05-21T11:51:40.848Z,17.13
2023-05-21T11:54:09.195Z,17.48
2023-05-21T11:56:36.928Z,15.93
2023-05-21T11:59:03.572Z,17.63
2023-05-21T12:01:31.240Z,18.30
2023-05-21T12:03:57.901Z,15.88
2023-05-21T12:06:27.778Z,15.90
2023-05-21T12:08:58.586Z,18.83
2023-05-21T12:11:26.791Z,16.15
2023-05-21T12:13:53.571Z,18.80
2023-05-21T12:16:20.912Z,17.98
2023-05-21T12:18:48.058Z,18.42
2023-05-21T12:21:14.655Z,17.27
2023-05-21T12:23:41.591Z,18.85
2023-05-21T12:26:09.325Z,15.30
2023-05-21T12:28:36.625Z,17.05
2023-05-21T12:31:04.289Z,17.58
2023-05-21T12:33:36.715Z,17.52
2023-05-21T12:36:04.161Z,17.25
2023-05-21T12:38:31.726Z,15.73
2023-05-21T12:41:04.905Z,17.52
2023-05-21T12:43:32.929Z,18.90
2023-05-21T12:45:59.545Z,16.13
2023-05-21T12:48:26.193Z,15.45
2023-05-21T12:50:52.856Z,16.08
2023-05-21T12:53:19.379Z,16.75
2023-05-21T12:55:46.236Z,16.85
2023-05-21T12:58:14.196Z,17.40
2023-05-21T13:00:43.206Z,17.55
2023-05-21T13:03:10.026Z,16.40
2023-05-21T13:05:40.492Z,17.25
2023-05-21T13:10:33.515Z,16.98
2023-05-21T13:13:00.403Z,15.88
2023-05-21T13:15:27.147Z,16.45
2023-05-21T13:17:55.299Z,16.90
2023-05-21T13:20:26.494Z,16.20
2023-05-21T13:22:54.016Z,19.27
2023-05-21T13:25:24.452Z,17.90
2023-05-21T13:27:52.086Z,16.48
2023-05-21T13:30:19.118Z,16.70
2023-05-21T13:32:46.048Z,17.10
2023-05-21T13:35:13.140Z,14.63
2023-05-21T13:37:40.747Z,16.27
2023-05-21T13:40:11.064Z,16.17
2023-05-21T13:45:09.664Z,17.05
2023-05-21T13:47:39.943Z,16.20
2023-05-21T13:50:07.880Z,17.35
2023-05-21T13:52:34.631Z,18.25
2023-05-21T13:55:01.150Z,18.45
2023-05-21T13:57:30.702Z,16.67
2023-05-21T13:59:58.010Z,15.45
2023-05-21T14:02:24.764Z,17.60
2023-05-21T14:04:51.548Z,16.60
2023-05-21T14:07:18.421Z,15.60
2023-05-21T14:09:45.074Z,16.80
2023-05-21T14:12:11.909Z,17.17
2023-05-21T14:14:38.563Z,15.02
2023-05-21T14:17:06.628Z,17.23
2023-05-21T14:19:33.383Z,15.15
2023-05-21T14:22:00.084Z,15.65
2023-05-21T14:24:26.950Z,14.73
2023-05-21T14:26:53.579Z,17.30
2023-05-21T14:29:20.396Z,16.98
2023-05-21T14:31:47.107Z,15.27
2023-05-21T14:34:13.728Z,15.30
2023-05-21T14:36:40.358Z,14.02
2023-05-21T14:39:06.969Z,15.50
2023-05-21T14:41:33.675Z,13.98
2023-05-21T14:44:00.449Z,14.30
2023-05-21T14:46:27.096Z,14.63
2023-05-21T14:48:55.467Z,13.73
2023-05-21T14:51:22.288Z,15.02
2023-05-21T14:53:48.867Z,12.80
2023-05-21T14:56:15.633Z,13.93
2023-05-21T14:58:42.157Z,15.50
2023-05-21T15:01:08.973Z,15.13
2023-05-21T15:03:36.121Z,14.00
2023-05-21T15:06:02.758Z,13.75
2023-05-21T15:08:29.521Z,15.63
2023-05-21T15:10:56.953Z,14.60
2023-05-21T15:13:23.550Z,14.38
2023-05-21T15:15:50.179Z,14.20
2023-05-21T15:18:17.082Z,13.82
2023-05-21T15:20:43.662Z,12.40
2023-05-21T15:23:16.802Z,13.23
2023-05-21T15:25:44.458Z,13.35
2023-05-21T15:28:12.247Z,13.15
2023-05-21T15:30:39.487Z,13.90
2023-05-21T15:33:06.582Z,13.10
2023-05-21T15:35:35.460Z,13.10
2023-05-21T15:38:02.338Z,13.82
2023-05-21T15:40:29.978Z,12.63
2023-05-21T15:42:56.521Z,12.55
2023-05-21T15:45:25.131Z,12.95
2023-05-21T15:47:51.734Z,13.75
2023-05-21T15:50:18.396Z,12.35
2023-05-21T15:52:44.989Z,14.70
2023-05-21T15:55:11.619Z,13.02
2023-05-21T15:57:38.381Z,14.10
2023-05-21T16:00:06.314Z,12.40
2023-05-21T16:02:32.972Z,13.35
2023-05-21T16:04:59.563Z,13.50
2023-05-21T16:07:26.221Z,13.57
2023-05-21T16:09:52.913Z,13.10
2023-05-21T16:12:19.496Z,14.80
2023-05-21T16:14:49.840Z,14.48
2023-05-21T16:17:16.825Z,14.00
2023-05-21T16:19:43.537Z,15.27
2023-05-21T16:22:10.912Z,15.93
2023-05-21T16:24:37.921Z,15.63
2023-05-21T16:27:05.108Z,14.27
2023-05-21T16:29:32.101Z,13.60
2023-05-21T16:31:58.922Z,13.18
2023-05-21T16:34:25.662Z,14.57
2023-05-21T16:36:52.242Z,13.57
2023-05-21T16:39:18.919Z,14.00
2023-05-21T16:41:45.590Z,14.93
2023-05-21T16:44:12.286Z,14.50
2023-05-21T16:46:38.945Z,13.77
2023-05-21T16:49:05.707Z,14.25
2023-05-21T16:51:32.317Z,14.68
2023-05-21T16:53:58.906Z,14.90
2023-05-21T16:56:27.190Z,14.27
2023-05-21T16:58:53.781Z,14.48
2023-05-21T17:01:20.700Z,17.15
2023-05-21T17:03:47.514Z,16.58
2023-05-21T17:06:15.013Z,15.93
2023-05-21T17:08:42.712Z,15.93
2023-05-21T17:11:09.502Z,15.73
2023-05-21T17:13:38.669Z,16.33
2023-05-21T17:16:05.319Z,15.35
2023-05-21T17:18:34.022Z,15.50
2023-05-21T17:21:00.721Z,14.15
2023-05-21T17:23:27.318Z,15.43
2023-05-21T17:25:54.015Z,16.52
2023-05-21T17:28:23.327Z,14.82
2023-05-21T17:30:50.086Z,14.65
2023-05-21T17:33:16.660Z,16.27
2023-05-21T17:35:43.446Z,15.63
2023-05-21T17:38:10.371Z,15.05
2023-05-21T17:40:37.039Z,16.77
2023-05-21T17:43:04.856Z,15.10
2023-05-21T17:45:31.890Z,15.93
2023-05-21T17:48:00.461Z,15.60
2023-05-21T17:50:28.061Z,15.35
2023-05-21T17:52:55.352Z,16.73
2023-05-21T17:55:24.301Z,17.42
2023-05-21T17:57:51.043Z,17.00
2023-05-21T18:00:18.321Z,15.82
2023-05-21T18:02:49.784Z,16.63
2023-05-21T18:05:16.750Z,17.30
2023-05-21T18:07:46.277Z,16.23
2023-05-21T18:10:15.095Z,16.50
2023-05-21T18:12:41.822Z,15.25
2023-05-21T18:15:09.059Z,15.52
2023-05-21T18:17:35.778Z,16.67
2023-05-21T18:20:04.326Z,16.83
2023-05-21T18:22:31.101Z,16.05
2023-05-21T18:24:57.696Z,15.65
2023-05-21T18:27:24.196Z,16.50
2023-05-21T18:29:51.399Z,16.15
2023-05-21T18:32:18.065Z,16.98
2023-05-21T18:34:44.756Z,17.02
2023-05-21T18:37:11.295Z,19.10
2023-05-21T18:39:37.876Z,17.65
2023-05-21T18:42:12.893Z,17.20
2023-05-21T18:44:40.750Z,16.67
2023-05-21T18:47:07.880Z,16.95
2023-05-21T18:49:36.275Z,16.17
2023-05-21T18:52:04.098Z,15.40
2023-05-21T18:54:31.205Z,16.63
2023-05-21T18:57:00.235Z,15.77
2023-05-21T18:59:28.268Z,16.42
2023-05-21T19:01:55.303Z,15.95
2023-05-21T19:04:21.945Z,16.75
2023-05-21T19:06:48.522Z,16.00
2023-05-21T19:09:15.154Z,15.40
2023-05-21T19:11:41.738Z,17.55
2023-05-21T19:14:08.340Z,17.80
2023-05-21T19:16:35.069Z,17.85
2023-05-21T19:19:03.264Z,18.25
2023-05-21T19:21:30.116Z,16.52
2023-05-21T19:23:57.053Z,17.23
2023-05-21T19:26:23.710Z,19.15
2023-05-21T19:28:53.776Z,18.40
2023-05-21T19:31:23.879Z,19.02
2023-05-21T19:33:50.843Z,18.50
2023-05-21T19:36:18.496Z,17.92
2023-05-21T19:38:49.354Z,18.83
2023-05-21T19:41:19.940Z,16.77
2023-05-21T19:46:15.860Z,22.13
2023-05-21T19:48:44.983Z,22.23
2023-05-21T19:51:11.624Z,21.38
2023-05-21T19:53:38.443Z,20.90
2023-05-21T19:56:05.282Z,21.02
2023-05-21T19:58:33.088Z,21.88
2023-05-21T20:00:59.887Z,20.02
2023-05-21T20:03:26.991Z,19.10
2023-05-21T20:05:54.290Z,18.33
2023-05-21T20:08:21.340Z,19.35
2023-05-21T20:10:51.169Z,17.13
2023-05-21T20:13:18.692Z,20.02
2023-05-21T20:15:45.638Z,18.88
2023-05-21T20:18:12.878Z,17.45
2023-05-21T20:20:46.662Z,15.40
2023-05-21T20:23:16.770Z,12.85
2023-05-21T20:25:46.349Z,12.48
2023-05-21T20:28:15.632Z,11.65
2023-05-21T20:30:58.966Z,11.80
2023-05-21T20:33:27.465Z,11.05
2023-05-21T20:35:54.055Z,10.48
2023-05-21T20:38:21.017Z,11.02
2023-05-21T20:40:47.722Z,11.20
2023-05-21T20:43:16.358Z,11.52
2023-05-21T20:45:43.658Z,11.65
2023-05-21T20:48:11.933Z,11.77
2023-05-21T20:50:38.915Z,11.68
2023-05-21T20:53:05.690Z,11.75
2023-05-21T20:55:34.786Z,11.35
2023-05-21T20:58:02.948Z,11.73
2023-05-21T21:00:29.764Z,12.23
2023-05-21T21:02:58.260Z,12.23
2023-05-21T21:05:25.311Z,12.32
2023-05-21T21:07:55.497Z,11.70
2023-05-21T21:10:22.481Z,12.25
2023-05-21T21:12:49.130Z,13.45
2023-05-21T21:15:15.884Z,12.80
2023-05-21T21:17:42.506Z,12.27
2023-05-21T21:20:10.832Z,12.43
2023-05-21T21:22:37.566Z,13.15
2023-05-21T21:25:04.483Z,13.10
2023-05-21T21:27:31.369Z,12.65
2023-05-21T21:29:57.922Z,12.25
2023-05-21T21:32:26.170Z,11.60
2023-05-21T21:34:52.730Z,12.23
2023-05-21T21:37:19.387Z,11.95
2023-05-21T21:39:46.001Z,11.30
2023-05-21T21:42:12.565Z,10.90
2023-05-21T21:44:39.323Z,11.23
2023-05-21T21:47:06.014Z,10.57
2023-05-21T21:49:32.514Z,11.10
2023-05-21T21:51:59.023Z,11.23
2023-05-21T21:54:25.633Z,11.93
2023-05-21T21:56:52.166Z,11.75
2023-05-21T21:59:18.705Z,11.30
2023-05-21T22:01:45.528Z,12.40
2023-05-21T22:04:12.196Z,12.80
2023-05-21T22:06:39.163Z,14.40
2023-05-21T22:09:06.660Z,15.18
2023-05-21T22:11:33.247Z,12.88
2023-05-21T22:14:01.422Z,13.57
2023-05-21T22:16:31.352Z,13.13
2023-05-21T22:18:58.931Z,13.50
2023-05-21T22:21:29.249Z,13.38
2023-05-21T22:23:56.206Z,13.90
2023-05-21T22:26:23.378Z,13.55
2023-05-21T22:28:50.209Z,14.30
2023-05-21T22:31:17.511Z,14.25
2023-05-21T22:33:44.276Z,14.38
2023-05-21T22:36:10.976Z,15.63
2023-05-21T22:38:37.907Z,14.77
2023-05-21T22:41:04.538Z,13.75
2023-05-21T22:43:33.420Z,15.77
2023-05-21T22:46:00.197Z,14.90
2023-05-21T22:48:26.739Z,15.48
2023-05-21T22:50:58.194Z,14.32
2023-05-21T22:53:25.661Z,15.07
2023-05-21T22:55:52.670Z,15.00
2023-05-21T22:58:19.256Z,16.48
2023-05-21T23:00:47.208Z,15.57
2023-05-21T23:03:13.995Z,16.27
2023-05-21T23:05:40.931Z,15.90
2023-05-21T23:08:07.769Z,16.60
2023-05-21T23:10:35.565Z,17.05
2023-05-21T23:13:02.184Z,17.02
2023-05-21T23:15:29.595Z,16.52
2023-05-21T23:17:57.167Z,15.63
2023-05-21T23:20:24.671Z,16.52
2023-05-21T23:22:51.676Z,16.77
2023-05-21T23:25:18.339Z,17.75
2023-05-21T23:27:45.088Z,16.92
2023-05-21T23:30:12.045Z,16.83
2023-05-21T23:32:38.870Z,16.95
2023-05-21T23:35:06.011Z,16.27
2023-05-21T23:37:32.515Z,17.17
2023-05-21T23:39:58.991Z,17.13
2023-05-21T23:42:25.553Z,17.25
2023-05-21T23:44:52.119Z,17.13
2023-05-21T23:47:18.778Z,18.85
2023-05-21T23:49:48.139Z,18.10
2023-05-21T23:52:17.319Z,19.02
2023-05-21T23:54:44.518Z,17.88
2023-05-21T23:57:11.395Z,19.35
2023-05-21T23:59:37.883Z,18.38
